sensor_id;sensor_type;location;lat;lon;timestamp;P1;durP1;ratioP1;P2;durP2;ratioP2
68942;SDS011;60852;52.190;4.422;2023-10-13T00:01:58;4.73;;;3.68;;
68942;SDS011;60852;52.190;4.422;2023-10-13T00:04:25;4.81;;;3.75;;
68942;SDS011;60852;52.190;4.422;2023-10-13T00:06:51;4.26;;;3.32;;
68942;SDS011;60852;52.190;4.422;2023-10-13T00:09:18;4.66;;;3.64;;
68942;SDS011;60852;52.190;4.422;2023-10-13T00:11:49;4.72;;;3.63;;
68942;SDS011;60852;52.190;4.422;2023-10-13T00:14:14;4.64;;;3.57;;
68942;SDS011;60852;52.190;4.422;2023-10-13T00:16:42;4.53;;;3.52;;
68942;SDS011;60852;52.190;4.422;2023-10-13T00:19:27;4.67;;;3.67;;
68942;SDS011;60852;52.190;4.422;2023-10-13T00:21:53;3.60;;;2.94;;
68942;SDS011;60852;52.190;4.422;2023-10-13T00:24:21;3.22;;;2.66;;
68942;SDS011;60852;52.190;4.422;2023-10-13T00:26:48;3.33;;;2.70;;
68942;SDS011;60852;52.190;4.422;2023-10-13T00:29:14;3.76;;;3.01;;
68942;SDS011;60852;52.190;4.422;2023-10-13T00:31:43;4.35;;;3.49;;
68942;SDS011;60852;52.190;4.422;2023-10-13T00:34:13;3.92;;;3.14;;
68942;SDS011;60852;52.190;4.422;2023-10-13T00:36:50;4.57;;;3.67;;
68942;SDS011;60852;52.190;4.422;2023-10-13T00:39:38;5.13;;;4.16;;
68942;SDS011;60852;52.190;4.422;2023-10-13T00:42:12;4.72;;;3.89;;
68942;SDS011;60852;52.190;4.422;2023-10-13T00:45:07;4.71;;;4.00;;
68942;SDS011;60852;52.190;4.422;2023-10-13T00:47:33;4.03;;;3.50;;
68942;SDS011;60852;52.190;4.422;2023-10-13T00:50:12;3.91;;;3.40;;
68942;SDS011;60852;52.190;4.422;2023-10-13T00:52:40;3.83;;;3.33;;
68942;SDS011;60852;52.190;4.422;2023-10-13T00:55:12;3.57;;;2.98;;
68942;SDS011;60852;52.190;4.422;2023-10-13T00:57:39;3.91;;;3.21;;
68942;SDS011;60852;52.190;4.422;2023-10-13T01:00:07;3.48;;;2.83;;
68942;SDS011;60852;52.190;4.422;2023-10-13T01:02:53;3.72;;;2.96;;
68942;SDS011;60852;52.190;4.422;2023-10-13T01:05:21;3.96;;;3.10;;
68942;SDS011;60852;52.190;4.422;2023-10-13T01:07:49;4.18;;;3.20;;
68942;SDS011;60852;52.190;4.422;2023-10-13T01:10:18;4.53;;;3.51;;
68942;SDS011;60852;52.190;4.422;2023-10-13T01:12:44;4.71;;;3.79;;
68942;SDS011;60852;52.190;4.422;2023-10-13T01:15:11;4.08;;;3.46;;
68942;SDS011;60852;52.190;4.422;2023-10-13T01:17:41;3.64;;;3.30;;
68942;SDS011;60852;52.190;4.422;2023-10-13T01:20:11;3.45;;;3.38;;
68942;SDS011;60852;52.190;4.422;2023-10-13T01:22:46;3.72;;;3.71;;
68942;SDS011;60852;52.190;4.422;2023-10-13T01:25:22;4.06;;;4.06;;
68942;SDS011;60852;52.190;4.422;2023-10-13T01:27:53;4.24;;;4.24;;
68942;SDS011;60852;52.190;4.422;2023-10-13T01:30:19;4.49;;;4.49;;
68942;SDS011;60852;52.190;4.422;2023-10-13T01:32:52;4.45;;;4.45;;
68942;SDS011;60852;52.190;4.422;2023-10-13T01:35:19;4.75;;;4.75;;
68942;SDS011;60852;52.190;4.422;2023-10-13T01:37:51;4.73;;;4.73;;
68942;SDS011;60852;52.190;4.422;2023-10-13T01:40:16;4.61;;;4.61;;
68942;SDS011;60852;52.190;4.422;2023-10-13T01:42:48;4.52;;;4.52;;
68942;SDS011;60852;52.190;4.422;2023-10-13T01:45:20;4.54;;;4.54;;
68942;SDS011;60852;52.190;4.422;2023-10-13T01:47:46;5.01;;;5.01;;
68942;SDS011;60852;52.190;4.422;2023-10-13T01:50:15;5.32;;;5.32;;
68942;SDS011;60852;52.190;4.422;2023-10-13T01:52:51;5.21;;;5.21;;
68942;SDS011;60852;52.190;4.422;2023-10-13T01:55:17;5.25;;;5.25;;
68942;SDS011;60852;52.190;4.422;2023-10-13T01:57:44;5.28;;;5.28;;
68942;SDS011;60852;52.190;4.422;2023-10-13T02:00:13;5.46;;;5.46;;
68942;SDS011;60852;52.190;4.422;2023-10-13T02:02:44;5.28;;;5.28;;
68942;SDS011;60852;52.190;4.422;2023-10-13T02:05:10;5.15;;;5.15;;
68942;SDS011;60852;52.190;4.422;2023-10-13T02:07:37;4.72;;;4.72;;
68942;SDS011;60852;52.190;4.422;2023-10-13T02:10:04;5.01;;;5.01;;
68942;SDS011;60852;52.190;4.422;2023-10-13T02:12:31;5.17;;;5.17;;
68942;SDS011;60852;52.190;4.422;2023-10-13T02:15:09;4.89;;;4.89;;
68942;SDS011;60852;52.190;4.422;2023-10-13T02:17:37;5.34;;;5.34;;
68942;SDS011;60852;52.190;4.422;2023-10-13T02:20:07;5.77;;;5.77;;
68942;SDS011;60852;52.190;4.422;2023-10-13T02:22:39;6.28;;;6.28;;
68942;SDS011;60852;52.190;4.422;2023-10-13T02:25:14;6.33;;;6.33;;
68942;SDS011;60852;52.190;4.422;2023-10-13T02:28:00;6.82;;;6.82;;
68942;SDS011;60852;52.190;4.422;2023-10-13T02:30:26;7.21;;;7.21;;
68942;SDS011;60852;52.190;4.422;2023-10-13T02:32:55;7.28;;;7.28;;
68942;SDS011;60852;52.190;4.422;2023-10-13T02:35:22;7.39;;;7.39;;
68942;SDS011;60852;52.190;4.422;2023-10-13T02:37:55;7.56;;;7.56;;
68942;SDS011;60852;52.190;4.422;2023-10-13T02:40:21;7.92;;;7.92;;
68942;SDS011;60852;52.190;4.422;2023-10-13T02:42:48;8.30;;;8.30;;
68942;SDS011;60852;52.190;4.422;2023-10-13T02:45:14;8.27;;;8.27;;
68942;SDS011;60852;52.190;4.422;2023-10-13T02:47:40;8.96;;;8.96;;
68942;SDS011;60852;52.190;4.422;2023-10-13T02:50:09;9.29;;;9.29;;
68942;SDS011;60852;52.190;4.422;2023-10-13T02:52:38;9.78;;;9.78;;
68942;SDS011;60852;52.190;4.422;2023-10-13T02:55:07;10.04;;;10.04;;
68942;SDS011;60852;52.190;4.422;2023-10-13T02:57:35;10.30;;;10.30;;
68942;SDS011;60852;52.190;4.422;2023-10-13T03:00:01;10.31;;;10.31;;
68942;SDS011;60852;52.190;4.422;2023-10-13T03:02:47;10.45;;;10.45;;
68942;SDS011;60852;52.190;4.422;2023-10-13T03:05:23;10.57;;;10.57;;
68942;SDS011;60852;52.190;4.422;2023-10-13T03:07:49;10.71;;;10.71;;
68942;SDS011;60852;52.190;4.422;2023-10-13T03:10:16;10.80;;;10.80;;
68942;SDS011;60852;52.190;4.422;2023-10-13T03:12:44;10.58;;;10.58;;
68942;SDS011;60852;52.190;4.422;2023-10-13T03:15:13;9.95;;;9.95;;
68942;SDS011;60852;52.190;4.422;2023-10-13T03:17:47;9.71;;;9.71;;
68942;SDS011;60852;52.190;4.422;2023-10-13T03:20:14;8.93;;;8.93;;
68942;SDS011;60852;52.190;4.422;2023-10-13T03:22:47;8.44;;;8.44;;
68942;SDS011;60852;52.190;4.422;2023-10-13T03:25:17;8.85;;;8.85;;
68942;SDS011;60852;52.190;4.422;2023-10-13T03:28:03;8.72;;;8.72;;
68942;SDS011;60852;52.190;4.422;2023-10-13T03:30:30;8.42;;;8.42;;
68942;SDS011;60852;52.190;4.422;2023-10-13T03:33:07;8.39;;;8.39;;
68942;SDS011;60852;52.190;4.422;2023-10-13T03:35:37;8.24;;;8.24;;
68942;SDS011;60852;52.190;4.422;2023-10-13T03:38:04;8.28;;;8.28;;
68942;SDS011;60852;52.190;4.422;2023-10-13T03:40:39;7.86;;;7.86;;
68942;SDS011;60852;52.190;4.422;2023-10-13T03:43:05;7.84;;;7.84;;
68942;SDS011;60852;52.190;4.422;2023-10-13T03:45:37;7.65;;;7.65;;
68942;SDS011;60852;52.190;4.422;2023-10-13T03:48:12;6.75;;;6.75;;
68942;SDS011;60852;52.190;4.422;2023-10-13T03:50:48;5.88;;;5.88;;
68942;SDS011;60852;52.190;4.422;2023-10-13T03:53:27;5.45;;;5.45;;
68942;SDS011;60852;52.190;4.422;2023-10-13T03:55:53;4.25;;;4.25;;
68942;SDS011;60852;52.190;4.422;2023-10-13T03:58:36;3.50;;;3.50;;
68942;SDS011;60852;52.190;4.422;2023-10-13T04:01:04;3.13;;;3.13;;
68942;SDS011;60852;52.190;4.422;2023-10-13T04:03:30;2.70;;;2.70;;
68942;SDS011;60852;52.190;4.422;2023-10-13T04:06:01;2.64;;;2.64;;
68942;SDS011;60852;52.190;4.422;2023-10-13T04:08:33;2.66;;;2.66;;
68942;SDS011;60852;52.190;4.422;2023-10-13T04:11:08;2.93;;;2.93;;
68942;SDS011;60852;52.190;4.422;2023-10-13T04:14:06;3.40;;;3.40;;
68942;SDS011;60852;52.190;4.422;2023-10-13T04:17:04;3.58;;;3.58;;
68942;SDS011;60852;52.190;4.422;2023-10-13T04:19:38;3.30;;;3.30;;
68942;SDS011;60852;52.190;4.422;2023-10-13T04:22:24;3.36;;;3.36;;
68942;SDS011;60852;52.190;4.422;2023-10-13T04:25:11;3.58;;;3.58;;
68942;SDS011;60852;52.190;4.422;2023-10-13T04:28:06;3.51;;;3.51;;
68942;SDS011;60852;52.190;4.422;2023-10-13T04:30:56;3.62;;;3.62;;
68942;SDS011;60852;52.190;4.422;2023-10-13T04:33:21;4.13;;;4.13;;
68942;SDS011;60852;52.190;4.422;2023-10-13T04:36:21;4.25;;;4.25;;
68942;SDS011;60852;52.190;4.422;2023-10-13T04:38:46;4.58;;;4.58;;
68942;SDS011;60852;52.190;4.422;2023-10-13T04:41:24;4.45;;;4.45;;
68942;SDS011;60852;52.190;4.422;2023-10-13T04:43:59;4.34;;;4.34;;
68942;SDS011;60852;52.190;4.422;2023-10-13T04:46:51;4.41;;;4.41;;
68942;SDS011;60852;52.190;4.422;2023-10-13T04:49:23;4.55;;;4.55;;
68942;SDS011;60852;52.190;4.422;2023-10-13T04:51:54;4.50;;;4.50;;
68942;SDS011;60852;52.190;4.422;2023-10-13T04:57:14;4.31;;;4.31;;
68942;SDS011;60852;52.190;4.422;2023-10-13T05:00:00;4.22;;;4.22;;
68942;SDS011;60852;52.190;4.422;2023-10-13T05:02:28;3.97;;;3.97;;
68942;SDS011;60852;52.190;4.422;2023-10-13T05:05:01;4.35;;;4.25;;
68942;SDS011;60852;52.190;4.422;2023-10-13T05:07:45;4.18;;;4.06;;
68942;SDS011;60852;52.190;4.422;2023-10-13T05:10:29;4.62;;;4.46;;
68942;SDS011;60852;52.190;4.422;2023-10-13T05:13:14;4.09;;;4.02;;
68942;SDS011;60852;52.190;4.422;2023-10-13T05:15:59;4.71;;;4.40;;
68942;SDS011;60852;52.190;4.422;2023-10-13T05:18:43;5.63;;;5.22;;
68942;SDS011;60852;52.190;4.422;2023-10-13T05:21:27;5.84;;;5.35;;
68942;SDS011;60852;52.190;4.422;2023-10-13T05:24:11;6.58;;;5.92;;
68942;SDS011;60852;52.190;4.422;2023-10-13T05:26:55;6.39;;;5.82;;
68942;SDS011;60852;52.190;4.422;2023-10-13T05:29:40;6.55;;;5.91;;
68942;SDS011;60852;52.190;4.422;2023-10-13T05:32:25;6.77;;;6.17;;
68942;SDS011;60852;52.190;4.422;2023-10-13T05:35:09;6.64;;;6.02;;
68942;SDS011;60852;52.190;4.422;2023-10-13T05:37:54;7.28;;;6.45;;
68942;SDS011;60852;52.190;4.422;2023-10-13T05:40:38;7.27;;;6.54;;
68942;SDS011;60852;52.190;4.422;2023-10-13T05:43:22;7.29;;;6.42;;
68942;SDS011;60852;52.190;4.422;2023-10-13T05:46:06;7.07;;;6.19;;
68942;SDS011;60852;52.190;4.422;2023-10-13T05:48:50;7.01;;;6.31;;
68942;SDS011;60852;52.190;4.422;2023-10-13T05:51:31;6.98;;;6.27;;
68942;SDS011;60852;52.190;4.422;2023-10-13T05:54:00;7.53;;;6.71;;
68942;SDS011;60852;52.190;4.422;2023-10-13T05:59:29;7.48;;;6.68;;
68942;SDS011;60852;52.190;4.422;2023-10-13T06:02:15;6.76;;;6.14;;
68942;SDS011;60852;52.190;4.422;2023-10-13T06:05:02;6.04;;;5.69;;
68942;SDS011;60852;52.190;4.422;2023-10-13T06:07:50;6.57;;;6.08;;
68942;SDS011;60852;52.190;4.422;2023-10-13T06:10:35;6.76;;;6.07;;
68942;SDS011;60852;52.190;4.422;2023-10-13T06:13:19;6.91;;;6.21;;
68942;SDS011;60852;52.190;4.422;2023-10-13T06:16:07;6.53;;;5.91;;
68942;SDS011;60852;52.190;4.422;2023-10-13T06:19:00;6.21;;;5.77;;
68942;SDS011;60852;52.190;4.422;2023-10-13T06:21:45;6.03;;;5.69;;
68942;SDS011;60852;52.190;4.422;2023-10-13T06:24:30;6.11;;;5.64;;
68942;SDS011;60852;52.190;4.422;2023-10-13T06:27:15;6.32;;;6.09;;
68942;SDS011;60852;52.190;4.422;2023-10-13T06:30:00;5.61;;;5.34;;
68942;SDS011;60852;52.190;4.422;2023-10-13T06:32:26;5.28;;;5.06;;
68942;SDS011;60852;52.190;4.422;2023-10-13T06:34:52;4.87;;;4.65;;
68942;SDS011;60852;52.190;4.422;2023-10-13T06:37:23;5.60;;;5.40;;
68942;SDS011;60852;52.190;4.422;2023-10-13T06:39:52;5.68;;;5.42;;
68942;SDS011;60852;52.190;4.422;2023-10-13T06:42:27;5.54;;;5.35;;
68942;SDS011;60852;52.190;4.422;2023-10-13T06:44:53;5.75;;;5.56;;
68942;SDS011;60852;52.190;4.422;2023-10-13T06:47:20;6.10;;;5.80;;
68942;SDS011;60852;52.190;4.422;2023-10-13T06:49:46;5.79;;;5.65;;
68942;SDS011;60852;52.190;4.422;2023-10-13T06:52:13;5.56;;;5.51;;
68942;SDS011;60852;52.190;4.422;2023-10-13T06:54:41;5.86;;;5.83;;
68942;SDS011;60852;52.190;4.422;2023-10-13T06:57:08;6.57;;;6.56;;
68942;SDS011;60852;52.190;4.422;2023-10-13T06:59:39;7.92;;;7.91;;
68942;SDS011;60852;52.190;4.422;2023-10-13T07:02:05;8.10;;;8.10;;
68942;SDS011;60852;52.190;4.422;2023-10-13T07:04:33;8.98;;;8.98;;
68942;SDS011;60852;52.190;4.422;2023-10-13T07:06:59;8.98;;;8.98;;
68942;SDS011;60852;52.190;4.422;2023-10-13T07:09:31;9.50;;;9.50;;
68942;SDS011;60852;52.190;4.422;2023-10-13T07:12:00;10.21;;;10.21;;
68942;SDS011;60852;52.190;4.422;2023-10-13T07:14:31;9.94;;;9.94;;
68942;SDS011;60852;52.190;4.422;2023-10-13T07:17:05;10.27;;;10.27;;
68942;SDS011;60852;52.190;4.422;2023-10-13T07:19:33;10.01;;;10.01;;
68942;SDS011;60852;52.190;4.422;2023-10-13T07:21:59;8.81;;;8.81;;
68942;SDS011;60852;52.190;4.422;2023-10-13T07:24:46;8.30;;;8.30;;
68942;SDS011;60852;52.190;4.422;2023-10-13T07:27:18;8.39;;;8.39;;
68942;SDS011;60852;52.190;4.422;2023-10-13T07:29:51;8.27;;;8.26;;
68942;SDS011;60852;52.190;4.422;2023-10-13T07:32:36;8.18;;;8.18;;
68942;SDS011;60852;52.190;4.422;2023-10-13T07:35:01;7.89;;;7.88;;
68942;SDS011;60852;52.190;4.422;2023-10-13T07:37:32;7.55;;;7.55;;
68942;SDS011;60852;52.190;4.422;2023-10-13T07:39:57;7.99;;;7.99;;
68942;SDS011;60852;52.190;4.422;2023-10-13T07:42:26;7.42;;;7.40;;
68942;SDS011;60852;52.190;4.422;2023-10-13T07:45:04;7.13;;;7.13;;
68942;SDS011;60852;52.190;4.422;2023-10-13T07:47:31;7.03;;;6.98;;
68942;SDS011;60852;52.190;4.422;2023-10-13T07:49:58;6.97;;;6.93;;
68942;SDS011;60852;52.190;4.422;2023-10-13T07:52:23;7.11;;;7.11;;
68942;SDS011;60852;52.190;4.422;2023-10-13T07:55:01;7.35;;;7.32;;
68942;SDS011;60852;52.190;4.422;2023-10-13T07:57:39;7.18;;;7.18;;
68942;SDS011;60852;52.190;4.422;2023-10-13T08:00:24;7.49;;;7.49;;
68942;SDS011;60852;52.190;4.422;2023-10-13T08:03:02;7.39;;;7.34;;
68942;SDS011;60852;52.190;4.422;2023-10-13T08:05:45;7.31;;;7.30;;
68942;SDS011;60852;52.190;4.422;2023-10-13T08:08:26;6.78;;;6.72;;
68942;SDS011;60852;52.190;4.422;2023-10-13T08:11:00;7.27;;;7.20;;
68942;SDS011;60852;52.190;4.422;2023-10-13T08:13:35;7.24;;;7.19;;
68942;SDS011;60852;52.190;4.422;2023-10-13T08:16:02;7.35;;;7.30;;
68942;SDS011;60852;52.190;4.422;2023-10-13T08:18:35;7.22;;;7.21;;
68942;SDS011;60852;52.190;4.422;2023-10-13T08:21:04;7.30;;;7.17;;
68942;SDS011;60852;52.190;4.422;2023-10-13T08:23:30;7.14;;;7.09;;
68942;SDS011;60852;52.190;4.422;2023-10-13T08:26:15;6.91;;;6.90;;
68942;SDS011;60852;52.190;4.422;2023-10-13T08:29:00;7.38;;;7.18;;
68942;SDS011;60852;52.190;4.422;2023-10-13T08:31:56;6.98;;;6.94;;
68942;SDS011;60852;52.190;4.422;2023-10-13T08:34:42;7.38;;;7.20;;
68942;SDS011;60852;52.190;4.422;2023-10-13T08:37:08;7.27;;;7.08;;
68942;SDS011;60852;52.190;4.422;2023-10-13T08:39:47;6.79;;;6.72;;
68942;SDS011;60852;52.190;4.422;2023-10-13T08:47:56;6.80;;;6.72;;
68942;SDS011;60852;52.190;4.422;2023-10-13T08:50:42;7.24;;;7.14;;
68942;SDS011;60852;52.190;4.422;2023-10-13T08:55:59;6.86;;;6.79;;
68942;SDS011;60852;52.190;4.422;2023-10-13T08:58:30;6.95;;;6.84;;
68942;SDS011;60852;52.190;4.422;2023-10-13T09:01:16;6.75;;;6.71;;
68942;SDS011;60852;52.190;4.422;2023-10-13T09:04:04;6.76;;;6.64;;
68942;SDS011;60852;52.190;4.422;2023-10-13T09:06:54;7.13;;;6.74;;
68942;SDS011;60852;52.190;4.422;2023-10-13T09:09:25;6.74;;;6.51;;
68942;SDS011;60852;52.190;4.422;2023-10-13T09:12:10;7.01;;;6.71;;
68942;SDS011;60852;52.190;4.422;2023-10-13T09:14:37;7.18;;;6.81;;
68942;SDS011;60852;52.190;4.422;2023-10-13T09:17:07;7.41;;;7.07;;
68942;SDS011;60852;52.190;4.422;2023-10-13T09:22:48;6.92;;;6.64;;
68942;SDS011;60852;52.190;4.422;2023-10-13T09:25:27;7.42;;;6.87;;
68942;SDS011;60852;52.190;4.422;2023-10-13T09:27:58;7.81;;;7.24;;
68942;SDS011;60852;52.190;4.422;2023-10-13T09:30:25;7.00;;;6.60;;
68942;SDS011;60852;52.190;4.422;2023-10-13T09:33:01;7.06;;;6.71;;
68942;SDS011;60852;52.190;4.422;2023-10-13T09:35:29;6.94;;;6.63;;
68942;SDS011;60852;52.190;4.422;2023-10-13T09:38:02;6.85;;;6.54;;
68942;SDS011;60852;52.190;4.422;2023-10-13T09:40:28;6.96;;;6.66;;
68942;SDS011;60852;52.190;4.422;2023-10-13T09:42:58;7.17;;;6.73;;
68942;SDS011;60852;52.190;4.422;2023-10-13T09:45:30;7.67;;;7.10;;
68942;SDS011;60852;52.190;4.422;2023-10-13T09:48:11;7.19;;;6.88;;
68942;SDS011;60852;52.190;4.422;2023-10-13T09:50:47;6.89;;;6.66;;
68942;SDS011;60852;52.190;4.422;2023-10-13T09:53:16;7.21;;;6.79;;
68942;SDS011;60852;52.190;4.422;2023-10-13T09:58:51;7.95;;;7.34;;
68942;SDS011;60852;52.190;4.422;2023-10-13T10:01:24;7.60;;;6.92;;
68942;SDS011;60852;52.190;4.422;2023-10-13T10:04:06;7.48;;;6.95;;
68942;SDS011;60852;52.190;4.422;2023-10-13T10:06:35;7.06;;;6.80;;
68942;SDS011;60852;52.190;4.422;2023-10-13T10:09:09;7.51;;;7.18;;
68942;SDS011;60852;52.190;4.422;2023-10-13T10:11:53;7.83;;;7.35;;
68942;SDS011;60852;52.190;4.422;2023-10-13T10:14:59;7.15;;;6.82;;
68942;SDS011;60852;52.190;4.422;2023-10-13T10:17:38;7.01;;;6.78;;
68942;SDS011;60852;52.190;4.422;2023-10-13T10:20:08;7.69;;;7.28;;
68942;SDS011;60852;52.190;4.422;2023-10-13T10:22:40;7.58;;;7.28;;
68942;SDS011;60852;52.190;4.422;2023-10-13T10:25:14;8.06;;;7.69;;
68942;SDS011;60852;52.190;4.422;2023-10-13T10:28:04;7.92;;;7.67;;
68942;SDS011;60852;52.190;4.422;2023-10-13T10:30:30;8.09;;;7.60;;
68942;SDS011;60852;52.190;4.422;2023-10-13T10:33:04;7.56;;;7.25;;
68942;SDS011;60852;52.190;4.422;2023-10-13T10:35:58;7.56;;;7.26;;
68942;SDS011;60852;52.190;4.422;2023-10-13T10:38:25;7.96;;;7.58;;
68942;SDS011;60852;52.190;4.422;2023-10-13T10:40:54;7.90;;;7.58;;
68942;SDS011;60852;52.190;4.422;2023-10-13T10:46:17;7.61;;;7.40;;
68942;SDS011;60852;52.190;4.422;2023-10-13T10:48:50;8.38;;;8.03;;
68942;SDS011;60852;52.190;4.422;2023-10-13T10:51:21;7.91;;;7.58;;
68942;SDS011;60852;52.190;4.422;2023-10-13T10:53:51;8.18;;;7.89;;
68942;SDS011;60852;52.190;4.422;2023-10-13T10:56:24;7.95;;;7.75;;
68942;SDS011;60852;52.190;4.422;2023-10-13T10:59:02;7.69;;;7.45;;
68942;SDS011;60852;52.190;4.422;2023-10-13T11:01:30;8.00;;;7.82;;
68942;SDS011;60852;52.190;4.422;2023-10-13T11:04:06;8.51;;;8.29;;
68942;SDS011;60852;52.190;4.422;2023-10-13T11:06:36;8.31;;;8.05;;
68942;SDS011;60852;52.190;4.422;2023-10-13T11:09:11;8.32;;;8.06;;
68942;SDS011;60852;52.190;4.422;2023-10-13T11:11:55;8.43;;;8.15;;
68942;SDS011;60852;52.190;4.422;2023-10-13T11:14:29;8.08;;;7.84;;
68942;SDS011;60852;52.190;4.422;2023-10-13T11:16:55;8.08;;;7.92;;
68942;SDS011;60852;52.190;4.422;2023-10-13T11:19:43;7.98;;;7.98;;
68942;SDS011;60852;52.190;4.422;2023-10-13T11:25:00;8.56;;;8.39;;
68942;SDS011;60852;52.190;4.422;2023-10-13T11:27:35;8.67;;;8.51;;
68942;SDS011;60852;52.190;4.422;2023-10-13T11:30:16;8.47;;;8.36;;
68942;SDS011;60852;52.190;4.422;2023-10-13T11:33:05;8.44;;;8.33;;
68942;SDS011;60852;52.190;4.422;2023-10-13T11:35:33;8.35;;;8.22;;
68942;SDS011;60852;52.190;4.422;2023-10-13T11:38:24;8.48;;;8.30;;
68942;SDS011;60852;52.190;4.422;2023-10-13T11:41:00;8.26;;;8.09;;
68942;SDS011;60852;52.190;4.422;2023-10-13T11:43:37;8.39;;;8.19;;
68942;SDS011;60852;52.190;4.422;2023-10-13T11:49:05;9.08;;;8.83;;
68942;SDS011;60852;52.190;4.422;2023-10-13T11:51:39;8.63;;;8.39;;
68942;SDS011;60852;52.190;4.422;2023-10-13T11:54:08;9.33;;;8.71;;
68942;SDS011;60852;52.190;4.422;2023-10-13T11:56:33;9.09;;;8.62;;
68942;SDS011;60852;52.190;4.422;2023-10-13T11:58:58;8.61;;;8.40;;
68942;SDS011;60852;52.190;4.422;2023-10-13T12:01:26;9.06;;;8.81;;
68942;SDS011;60852;52.190;4.422;2023-10-13T12:04:13;8.60;;;8.31;;
68942;SDS011;60852;52.190;4.422;2023-10-13T12:06:56;9.44;;;9.03;;
68942;SDS011;60852;52.190;4.422;2023-10-13T12:09:40;9.18;;;8.79;;
68942;SDS011;60852;52.190;4.422;2023-10-13T12:12:21;9.46;;;9.16;;
68942;SDS011;60852;52.190;4.422;2023-10-13T12:14:48;9.53;;;9.14;;
68942;SDS011;60852;52.190;4.422;2023-10-13T12:19:59;9.54;;;9.22;;
68942;SDS011;60852;52.190;4.422;2023-10-13T12:22:25;10.72;;;10.15;;
68942;SDS011;60852;52.190;4.422;2023-10-13T12:25:00;9.85;;;9.30;;
68942;SDS011;60852;52.190;4.422;2023-10-13T12:27:29;10.41;;;10.02;;
68942;SDS011;60852;52.190;4.422;2023-10-13T12:30:11;9.96;;;9.45;;
68942;SDS011;60852;52.190;4.422;2023-10-13T12:32:39;10.03;;;9.55;;
68942;SDS011;60852;52.190;4.422;2023-10-13T12:35:10;10.02;;;9.62;;
68942;SDS011;60852;52.190;4.422;2023-10-13T12:37:35;10.32;;;9.83;;
68942;SDS011;60852;52.190;4.422;2023-10-13T12:40:01;10.36;;;9.83;;
68942;SDS011;60852;52.190;4.422;2023-10-13T12:42:46;10.26;;;9.83;;
68942;SDS011;60852;52.190;4.422;2023-10-13T12:45:30;9.61;;;9.32;;
68942;SDS011;60852;52.190;4.422;2023-10-13T12:48:14;9.56;;;9.37;;
68942;SDS011;60852;52.190;4.422;2023-10-13T12:51:02;9.34;;;9.04;;
68942;SDS011;60852;52.190;4.422;2023-10-13T12:53:45;9.19;;;8.88;;
68942;SDS011;60852;52.190;4.422;2023-10-13T12:56:18;10.06;;;9.57;;
68942;SDS011;60852;52.190;4.422;2023-10-13T12:58:54;9.22;;;8.86;;
68942;SDS011;60852;52.190;4.422;2023-10-13T13:01:20;9.31;;;8.90;;
68942;SDS011;60852;52.190;4.422;2023-10-13T13:03:50;9.29;;;8.84;;
68942;SDS011;60852;52.190;4.422;2023-10-13T13:06:21;9.68;;;9.21;;
68942;SDS011;60852;52.190;4.422;2023-10-13T13:08:51;10.12;;;9.66;;
68942;SDS011;60852;52.190;4.422;2023-10-13T13:11:18;9.99;;;9.49;;
68942;SDS011;60852;52.190;4.422;2023-10-13T13:13:43;9.52;;;9.14;;
68942;SDS011;60852;52.190;4.422;2023-10-13T13:16:11;9.40;;;9.00;;
68942;SDS011;60852;52.190;4.422;2023-10-13T13:18:37;9.78;;;9.29;;
68942;SDS011;60852;52.190;4.422;2023-10-13T13:21:03;10.23;;;9.64;;
68942;SDS011;60852;52.190;4.422;2023-10-13T13:23:31;10.02;;;9.28;;
68942;SDS011;60852;52.190;4.422;2023-10-13T13:26:00;9.67;;;9.06;;
68942;SDS011;60852;52.190;4.422;2023-10-13T13:28:26;9.61;;;9.07;;
68942;SDS011;60852;52.190;4.422;2023-10-13T13:30:54;9.34;;;8.69;;
68942;SDS011;60852;52.190;4.422;2023-10-13T13:33:19;9.42;;;8.79;;
68942;SDS011;60852;52.190;4.422;2023-10-13T13:35:52;10.04;;;9.30;;
68942;SDS011;60852;52.190;4.422;2023-10-13T13:38:18;10.56;;;9.66;;
68942;SDS011;60852;52.190;4.422;2023-10-13T13:40:48;11.19;;;10.12;;
68942;SDS011;60852;52.190;4.422;2023-10-13T13:43:22;10.17;;;9.34;;
68942;SDS011;60852;52.190;4.422;2023-10-13T13:46:02;9.22;;;8.64;;
68942;SDS011;60852;52.190;4.422;2023-10-13T13:48:29;9.90;;;9.17;;
68942;SDS011;60852;52.190;4.422;2023-10-13T13:50:55;10.32;;;9.29;;
68942;SDS011;60852;52.190;4.422;2023-10-13T13:53:30;10.66;;;9.56;;
68942;SDS011;60852;52.190;4.422;2023-10-13T13:56:02;10.37;;;9.57;;
68942;SDS011;60852;52.190;4.422;2023-10-13T13:58:28;11.20;;;10.06;;
68942;SDS011;60852;52.190;4.422;2023-10-13T14:01:01;10.66;;;9.60;;
68942;SDS011;60852;52.190;4.422;2023-10-13T14:03:37;11.31;;;10.18;;
68942;SDS011;60852;52.190;4.422;2023-10-13T14:06:15;10.86;;;9.88;;
68942;SDS011;60852;52.190;4.422;2023-10-13T14:08:49;10.64;;;9.76;;
68942;SDS011;60852;52.190;4.422;2023-10-13T14:11:20;11.28;;;10.27;;
68942;SDS011;60852;52.190;4.422;2023-10-13T14:14:08;11.38;;;10.27;;
68942;SDS011;60852;52.190;4.422;2023-10-13T14:16:38;11.92;;;10.48;;
68942;SDS011;60852;52.190;4.422;2023-10-13T14:19:09;11.85;;;10.33;;
68942;SDS011;60852;52.190;4.422;2023-10-13T14:21:44;10.86;;;9.47;;
68942;SDS011;60852;52.190;4.422;2023-10-13T14:24:09;10.30;;;9.17;;
68942;SDS011;60852;52.190;4.422;2023-10-13T14:26:39;10.19;;;8.82;;
68942;SDS011;60852;52.190;4.422;2023-10-13T14:29:08;12.27;;;10.15;;
68942;SDS011;60852;52.190;4.422;2023-10-13T14:31:35;12.15;;;9.93;;
68942;SDS011;60852;52.190;4.422;2023-10-13T14:34:04;13.39;;;10.68;;
68942;SDS011;60852;52.190;4.422;2023-10-13T14:36:31;12.43;;;10.01;;
68942;SDS011;60852;52.190;4.422;2023-10-13T14:39:00;14.02;;;11.09;;
68942;SDS011;60852;52.190;4.422;2023-10-13T14:41:26;13.29;;;10.71;;
68942;SDS011;60852;52.190;4.422;2023-10-13T14:43:52;13.24;;;10.65;;
68942;SDS011;60852;52.190;4.422;2023-10-13T14:46:17;13.98;;;11.11;;
68942;SDS011;60852;52.190;4.422;2023-10-13T14:48:48;14.19;;;11.08;;
68942;SDS011;60852;52.190;4.422;2023-10-13T14:51:17;14.98;;;11.30;;
68942;SDS011;60852;52.190;4.422;2023-10-13T14:53:43;14.12;;;10.65;;
68942;SDS011;60852;52.190;4.422;2023-10-13T14:56:10;11.66;;;9.00;;
68942;SDS011;60852;52.190;4.422;2023-10-13T14:58:36;12.52;;;9.28;;
68942;SDS011;60852;52.190;4.422;2023-10-13T15:01:01;11.43;;;8.62;;
68942;SDS011;60852;52.190;4.422;2023-10-13T15:03:28;10.84;;;8.31;;
68942;SDS011;60852;52.190;4.422;2023-10-13T15:05:55;9.86;;;7.48;;
68942;SDS011;60852;52.190;4.422;2023-10-13T15:08:20;9.42;;;7.32;;
68942;SDS011;60852;52.190;4.422;2023-10-13T15:10:46;8.86;;;6.92;;
68942;SDS011;60852;52.190;4.422;2023-10-13T15:13:11;8.49;;;6.76;;
68942;SDS011;60852;52.190;4.422;2023-10-13T15:15:37;8.27;;;6.85;;
68942;SDS011;60852;52.190;4.422;2023-10-13T15:18:04;8.28;;;7.34;;
68942;SDS011;60852;52.190;4.422;2023-10-13T15:20:29;9.67;;;8.89;;
68942;SDS011;60852;52.190;4.422;2023-10-13T15:22:55;9.97;;;9.22;;
68942;SDS011;60852;52.190;4.422;2023-10-13T15:25:25;10.71;;;10.15;;
68942;SDS011;60852;52.190;4.422;2023-10-13T15:27:59;10.60;;;10.28;;
68942;SDS011;60852;52.190;4.422;2023-10-13T15:30:33;11.59;;;10.90;;
68942;SDS011;60852;52.190;4.422;2023-10-13T15:33:17;12.40;;;11.80;;
68942;SDS011;60852;52.190;4.422;2023-10-13T15:35:45;11.76;;;11.22;;
68942;SDS011;60852;52.190;4.422;2023-10-13T15:38:10;12.55;;;11.90;;
68942;SDS011;60852;52.190;4.422;2023-10-13T15:40:40;12.90;;;12.26;;
68942;SDS011;60852;52.190;4.422;2023-10-13T15:43:07;13.36;;;12.54;;
68942;SDS011;60852;52.190;4.422;2023-10-13T15:45:33;13.02;;;12.33;;
68942;SDS011;60852;52.190;4.422;2023-10-13T15:48:04;13.23;;;12.57;;
68942;SDS011;60852;52.190;4.422;2023-10-13T15:50:37;12.65;;;12.00;;
68942;SDS011;60852;52.190;4.422;2023-10-13T15:53:06;12.57;;;11.92;;